Time;durP1;ratioP1;P1;durP2;ratioP2;P2;SDS_P1;SDS_P2;PMS_P1;PMS_P2;Temp;Humidity;BMP_temperature;BMP_pressure;BME280_temperature;BME280_humidity;BME280_pressure;Samples;Min_cycle;Max_cycle;Signal;HPM_P1;HPM_P2
2022/06/20 00:00:41;;;;;;;2.90;2.67;;;;;;;17.29;62.69;95010.41;5095563;28;20623;-71
2022/06/20 00:03:12;;;;;;;3.10;2.50;;;;;;;17.30;62.57;95008.41;5094596;28;20639;-71
2022/06/20 00:05:40;;;;;;;3.00;2.80;;;;;;;17.25;62.19;94998.47;5096229;28;20192;-71
2022/06/20 00:08:07;;;;;;;2.75;2.55;;;;;;;17.21;62.57;94999.63;5095961;28;20192;-71
2022/06/20 00:10:34;;;;;;;4.60;3.03;;;;;;;17.21;62.99;95005.22;5094815;28;20291;-71
2022/06/20 00:13:02;;;;;;;5.38;3.05;;;;;;;17.20;62.57;95003.63;5095755;28;20188;-71
2022/06/20 00:15:31;;;;;;;3.10;2.90;;;;;;;17.22;62.65;95009.63;5095665;28;20180;-71
2022/06/20 00:17:58;;;;;;;2.65;2.55;;;;;;;17.18;62.48;95001.25;5095269;28;20664;-70
2022/06/20 00:20:25;;;;;;;3.15;2.70;;;;;;;17.14;62.13;95011.59;5095276;28;20188;-70
2022/06/20 00:22:54;;;;;;;2.80;2.60;;;;;;;17.06;61.89;95007.19;5095298;28;20603;-70
2022/06/20 00:25:21;;;;;;;2.78;2.60;;;;;;;16.97;61.88;95002.00;5095494;28;20215;-71
2022/06/20 00:27:48;;;;;;;3.53;2.90;;;;;;;16.91;61.57;95003.59;5094405;28;20235;-71
2022/06/20 00:30:16;;;;;;;2.95;2.75;;;;;;;16.89;61.35;95008.78;5095908;28;20188;-71
2022/06/20 00:32:43;;;;;;;3.00;2.80;;;;;;;16.88;61.90;95003.59;5095079;28;20200;-71
2022/06/20 00:35:10;;;;;;;2.90;2.70;;;;;;;16.89;61.69;95007.97;5095499;28;20184;-71
2022/06/20 00:37:37;;;;;;;3.70;2.65;;;;;;;16.85;62.00;95005.19;5094673;28;20203;-71
2022/06/20 00:40:23;;;;;;;3.17;2.88;;;;;;;16.87;62.24;95000.00;5095219;28;20628;-71
2022/06/20 00:42:52;;;;;;;3.17;2.97;;;;;;;16.88;60.90;94996.00;5094637;28;20547;-70
2022/06/20 00:45:18;;;;;;;3.80;2.50;;;;;;;16.92;61.73;94993.22;5095286;28;20188;-70
2022/06/20 00:47:46;;;;;;;2.90;2.70;;;;;;;16.89;61.59;94996.84;5094149;28;20628;-71
2022/06/20 00:50:17;;;;;;;3.22;2.83;;;;;;;16.80;61.26;94995.22;5094411;28;20196;-71
2022/06/20 00:52:46;;;;;;;2.92;2.70;;;;;;;16.79;61.88;94996.41;5094877;28;20180;-71
2022/06/20 00:55:18;;;;;;;3.00;2.80;;;;;;;16.78;62.30;95000.41;5094845;28;20619;-71
2022/06/20 00:57:49;;;;;;;3.03;2.72;;;;;;;16.80;62.04;94997.19;5095140;28;20181;-71
2022/06/20 01:00:19;;;;;;;3.15;2.95;;;;;;;16.82;61.52;94990.06;5095566;28;20228;-70
2022/06/20 01:02:49;;;;;;;2.90;2.70;;;;;;;16.80;61.63;94986.06;5098245;28;20188;-70
2022/06/20 01:05:20;;;;;;;4.57;3.28;;;;;;;16.68;61.69;94989.19;5098254;28;20191;-70
2022/06/20 01:07:50;;;;;;;2.95;2.60;;;;;;;16.64;62.25;94988.41;5099199;28;20185;-70
2022/06/20 01:10:21;;;;;;;3.00;2.80;;;;;;;16.61;62.58;94981.63;5098209;28;20188;-70
2022/06/20 01:12:53;;;;;;;3.15;2.88;;;;;;;16.59;62.38;94984.81;5098259;28;20566;-70
2022/06/20 01:15:22;;;;;;;3.03;2.83;;;;;;;16.52;62.64;94982.00;5097929;28;20189;-70
2022/06/20 01:17:51;;;;;;;3.58;2.90;;;;;;;16.46;62.60;94980.78;5099033;28;20192;-70
2022/06/20 01:20:24;;;;;;;3.33;3.00;;;;;;;16.42;62.69;94979.19;5098602;28;20215;-70
2022/06/20 01:23:02;;;;;;;3.05;2.80;;;;;;;16.35;63.02;94980.75;5098272;28;20567;-70
2022/06/20 01:25:58;;;;;;;3.50;3.20;;;;;;;16.28;63.41;94985.50;5097682;28;20202;-70
2022/06/20 01:28:30;;;;;;;3.63;3.03;;;;;;;16.24;63.45;94979.91;5085627;28;20243;-70
2022/06/20 01:30:59;;;;;;;3.33;2.92;;;;;;;16.28;63.67;94991.06;5097875;28;20208;-70
2022/06/20 01:33:27;;;;;;;3.17;2.70;;;;;;;16.35;64.09;94989.09;5098329;28;20192;-70
2022/06/20 01:38:40;;;;;;;2.95;2.65;;;;;;;16.41;62.81;94992.28;5098824;28;20200;-69
2022/06/20 01:43:53;;;;;;;2.70;2.50;;;;;;;16.48;62.72;94994.28;5098287;28;20192;-69
2022/06/20 01:46:22;;;;;;;3.05;2.60;;;;;;;16.49;62.49;94984.78;5097512;28;20200;-69
2022/06/20 01:48:51;;;;;;;2.90;2.70;;;;;;;16.51;62.75;94991.53;5097588;28;20211;-69
2022/06/20 01:51:21;;;;;;;3.10;2.75;;;;;;;16.52;62.37;94989.53;5098305;28;20309;-70
2022/06/20 01:53:48;;;;;;;2.67;2.47;;;;;;;16.52;62.24;94983.97;5098327;28;20196;-70
2022/06/20 01:56:16;;;;;;;9.82;6.68;;;;;;;16.51;62.38;94976.81;5098404;28;20192;-71
2022/06/20 01:58:45;;;;;;;16.27;10.55;;;;;;;16.50;62.70;94984.38;5098340;28;20284;-71
2022/06/20 02:01:15;;;;;;;25.15;16.10;;;;;;;16.48;63.14;94972.03;5097981;28;20196;-71
2022/06/20 02:03:43;;;;;;;14.32;10.00;;;;;;;16.47;63.47;94984.34;5097983;28;20246;-71
2022/06/20 02:06:11;;;;;;;5.15;3.75;;;;;;;16.36;63.01;94981.53;5097825;28;20593;-71
2022/06/20 02:08:40;;;;;;;5.70;3.38;;;;;;;16.24;63.52;94979.13;5097148;28;20200;-71
2022/06/20 02:11:10;;;;;;;4.78;3.50;;;;;;;16.15;63.92;94975.88;5097497;28;20185;-71
2022/06/20 02:13:41;;;;;;;6.72;3.97;;;;;;;16.09;63.70;94976.28;5096835;28;20526;-71
2022/06/20 02:16:11;;;;;;;6.85;4.05;;;;;;;16.00;64.05;94978.59;5097640;28;20180;-67
2022/06/20 02:18:42;;;;;;;5.13;3.88;;;;;;;15.95;64.14;94975.41;5097026;28;20234;-70
2022/06/20 02:21:11;;;;;;;5.22;4.22;;;;;;;15.92;64.36;94979.75;5097076;28;20192;-70
2022/06/20 02:23:42;;;;;;;4.60;4.20;;;;;;;15.87;64.38;94985.69;5097018;28;20196;-71
2022/06/20 02:26:09;;;;;;;12.07;10.98;;;;;;;15.86;64.18;94982.09;5097453;28;20219;-71
2022/06/20 02:28:53;;;;;;;17.60;16.00;;;;;;;15.92;64.42;94978.97;5096665;28;20196;-70
2022/06/20 02:31:20;;;;;;;19.33;17.50;;;;;;;15.93;64.95;94977.78;5096604;28;20207;-70
2022/06/20 02:33:50;;;;;;;25.75;23.23;;;;;;;15.92;64.92;94978.97;5096640;28;20608;-71
2022/06/20 02:36:18;;;;;;;23.83;21.63;;;;;;;15.88;64.93;94976.16;5097753;28;20189;-70
2022/06/20 02:38:46;;;;;;;19.52;17.77;;;;;;;15.82;65.05;94972.94;5079794;28;20185;-71
2022/06/20 02:41:14;;;;;;;28.05;25.35;;;;;;;15.79;65.35;94970.16;5096538;28;20204;-70
2022/06/20 02:43:45;;;;;;;31.08;28.10;;;;;;;15.76;65.73;94968.97;5096662;28;20197;-70
2022/06/20 02:46:14;;;;;;;31.95;28.88;;;;;;;15.81;65.69;94967.78;5097406;28;20181;-69
2022/06/20 02:48:44;;;;;;;30.42;27.40;;;;;;;15.83;65.75;94965.41;5096532;28;20207;-70
2022/06/20 02:51:16;;;;;;;26.65;23.88;;;;;;;15.77;65.41;94964.19;5096284;28;20196;-69
2022/06/20 02:53:47;;;;;;;17.98;16.10;;;;;;;15.67;65.28;94964.91;5096920;28;20216;-69
2022/06/20 02:56:16;;;;;;;16.88;14.45;;;;;;;15.60;65.54;94965.63;5096918;28;20275;-70
2022/06/20 02:58:52;;;;;;;16.38;14.27;;;;;;;15.57;65.85;94977.53;5097152;28;20184;-70
2022/06/20 03:01:23;;;;;;;13.57;12.02;;;;;;;15.62;65.96;94977.97;5096905;28;20192;-69
2022/06/20 03:03:53;;;;;;;14.20;12.80;;;;;;;15.68;65.81;94983.19;5097011;28;20180;-69
2022/06/20 03:06:24;;;;;;;15.13;13.63;;;;;;;15.71;66.18;94979.63;5097245;28;20184;-69
2022/06/20 03:08:51;;;;;;;13.95;12.65;;;;;;;15.72;66.33;94984.00;5096401;28;20238;-70
2022/06/20 03:11:18;;;;;;;12.05;10.93;;;;;;;15.74;66.38;94984.44;5096742;28;20199;-70
2022/06/20 03:13:46;;;;;;;10.77;9.73;;;;;;;15.75;66.12;94970.13;5096741;28;20191;-70
2022/06/20 03:16:13;;;;;;;12.10;10.02;;;;;;;15.75;66.38;94978.47;5095954;28;20196;-71
2022/06/20 03:18:42;;;;;;;8.98;8.13;;;;;;;15.72;66.22;94972.88;5096737;28;20181;-71
2022/06/20 03:21:09;;;;;;;8.88;6.75;;;;;;;15.68;65.66;94972.06;5096494;28;20204;-70
2022/06/20 03:23:38;;;;;;;8.50;7.68;;;;;;;15.57;66.26;94969.19;5096361;28;20180;-71
2022/06/20 03:26:07;;;;;;;9.98;6.88;;;;;;;15.57;66.62;94977.53;5095151;28;20612;-71
2022/06/20 03:28:34;;;;;;;10.85;8.20;;;;;;;15.58;66.29;94973.59;5095671;28;20204;-67
2022/06/20 03:31:02;;;;;;;7.75;7.00;;;;;;;15.61;66.54;94976.38;5095433;28;20201;-71
2022/06/20 03:33:29;;;;;;;11.80;8.85;;;;;;;15.63;66.69;94962.09;5095509;28;20188;-68
2022/06/20 03:36:00;;;;;;;10.05;8.27;;;;;;;15.66;66.89;94974.47;5096395;28;20208;-69
2022/06/20 03:38:27;;;;;;;11.88;7.20;;;;;;;15.67;66.79;94973.25;5095572;28;20188;-68
2022/06/20 03:40:55;;;;;;;8.63;6.85;;;;;;;15.68;67.44;94972.06;5096117;28;20212;-68
2022/06/20 03:43:24;;;;;;;12.45;7.47;;;;;;;15.72;66.76;94970.91;5096416;28;20181;-69
2022/06/20 03:45:54;;;;;;;10.60;7.13;;;;;;;15.75;66.93;94977.66;5095942;28;20191;-67
2022/06/20 03:48:22;;;;;;;10.05;6.10;;;;;;;15.74;67.22;94976.88;5095296;28;20208;-68
2022/06/20 03:50:53;;;;;;;9.13;5.75;;;;;;;15.74;67.31;94976.88;5096069;28;20195;-68
2022/06/20 03:53:21;;;;;;;9.30;6.45;;;;;;;15.73;67.44;94980.84;5094802;28;20294;-69
2022/06/20 03:55:51;;;;;;;7.82;6.00;;;;;;;15.73;67.67;94978.06;5095241;28;20196;-69
2022/06/20 03:58:23;;;;;;;8.18;6.05;;;;;;;15.76;67.57;94979.25;5096042;28;20185;-68
2022/06/20 04:00:54;;;;;;;8.45;5.60;;;;;;;15.80;67.60;94980.09;5095166;28;20216;-68
2022/06/20 04:03:24;;;;;;;7.53;5.68;;;;;;;15.81;67.61;94987.25;5095925;28;20395;-67
2022/06/20 04:05:55;;;;;;;8.98;5.20;;;;;;;15.83;67.25;94984.88;5095103;28;20201;-67
2022/06/20 04:10:57;;;;;;;5.95;3.90;;;;;;;15.86;66.10;94984.88;5094680;28;20204;-67
2022/06/20 04:11:14;;;;;;;4.38;3.70;;;;;;;15.89;65.58;94986.09;5095392;28;20664;-67
2022/06/20 04:13:52;;;;;;;4.63;4.18;;;;;;;15.91;65.27;94980.94;5095948;28;20192;-67
2022/06/20 04:16:20;;;;;;;3.90;3.50;;;;;;;15.95;64.87;94975.41;5095692;28;20188;-67
2022/06/20 04:18:49;;;;;;;4.32;3.95;;;;;;;15.93;64.55;94963.88;5094741;28;20229;-67
2022/06/20 04:21:22;;;;;;;7.03;3.85;;;;;;;15.94;64.66;94968.22;5095517;28;20204;-67
2022/06/20 04:23:55;;;;;;;4.20;3.80;;;;;;;15.95;64.84;94967.06;5095575;28;20200;-68
2022/06/20 04:26:26;;;;;;;5.03;3.58;;;;;;;15.95;64.83;94965.06;5094547;28;20289;-68
2022/06/20 04:28:58;;;;;;;6.30;4.13;;;;;;;15.99;65.05;94973.44;5094508;28;20188;-68
2022/06/20 04:31:36;;;;;;;4.47;3.75;;;;;;;15.99;66.24;94967.88;5094297;28;20196;-68
2022/06/20 04:34:09;;;;;;;4.43;3.95;;;;;;;15.96;66.15;94975.00;5095435;28;20195;-68
2022/06/20 04:36:40;;;;;;;6.07;3.70;;;;;;;15.95;66.47;94976.22;5094487;28;20203;-68
2022/06/20 04:39:13;;;;;;;4.30;4.00;;;;;;;15.97;66.28;94978.59;5094648;28;20203;-68
2022/06/20 04:41:45;;;;;;;4.80;4.05;;;;;;;16.01;65.61;94969.09;5094819;28;20261;-69
2022/06/20 04:44:19;;;;;;;4.40;4.10;;;;;;;16.11;65.25;94964.75;5094587;28;20207;-68
2022/06/20 04:46:51;;;;;;;4.53;4.15;;;;;;;16.15;65.34;94967.53;5094222;28;20607;-68
2022/06/20 04:49:18;;;;;;;4.75;4.40;;;;;;;16.16;65.76;94960.78;5095230;28;20208;-68
2022/06/20 04:51:47;;;;;;;4.65;4.20;;;;;;;16.14;66.27;94961.19;5094639;28;20200;-68
2022/06/20 04:54:17;;;;;;;4.85;4.10;;;;;;;16.16;65.22;94955.22;5094618;28;20188;-68
2022/06/20 04:56:45;;;;;;;5.40;4.40;;;;;;;16.19;65.21;94958.00;5095039;28;20570;-67
2022/06/20 04:59:17;;;;;;;5.15;4.30;;;;;;;16.22;65.08;94956.44;5094893;28;20631;-68
2022/06/20 05:01:44;;;;;;;4.75;4.35;;;;;;;16.26;65.44;94955.25;5095614;28;20215;-67
2022/06/20 05:04:22;;;;;;;4.43;4.13;;;;;;;16.28;65.96;94946.53;5094906;28;20279;-67
2022/06/20 05:06:49;;;;;;;4.85;4.45;;;;;;;16.30;65.67;94946.91;5095216;28;20246;-71
2022/06/20 05:09:19;;;;;;;5.00;4.47;;;;;;;16.34;65.40;94944.97;5094305;28;20257;-67
2022/06/20 05:11:49;;;;;;;4.70;4.30;;;;;;;16.40;65.46;94948.94;5094290;28;20200;-68
2022/06/20 05:14:19;;;;;;;4.90;4.50;;;;;;;16.44;65.47;94952.53;5094522;28;20212;-68
2022/06/20 05:16:48;;;;;;;5.82;4.50;;;;;;;16.44;66.62;94951.75;5095336;28;20204;-67
2022/06/20 05:19:20;;;;;;;6.38;4.55;;;;;;;16.44;66.21;94952.53;5094287;28;20208;-67
2022/06/20 05:21:49;;;;;;;5.40;4.85;;;;;;;16.46;66.09;94960.50;5094764;28;20215;-67
2022/06/20 05:24:28;;;;;;;5.03;4.43;;;;;;;16.49;66.12;94960.50;5094507;28;20208;-67
2022/06/20 05:26:56;;;;;;;5.35;4.85;;;;;;;16.52;66.41;94956.94;5094198;28;20247;-67
2022/06/20 05:29:28;;;;;;;4.70;4.30;;;;;;;16.56;66.58;94951.38;5095087;28;20195;-67
2022/06/20 05:31:57;;;;;;;4.93;4.53;;;;;;;16.62;65.73;94952.56;5094785;28;20553;-67
2022/06/20 05:34:26;;;;;;;5.22;4.75;;;;;;;16.66;65.72;94958.94;5094134;28;20192;-67
2022/06/20 05:36:56;;;;;;;8.43;4.72;;;;;;;16.75;65.36;94951.03;5095084;28;20195;-67
2022/06/20 05:39:27;;;;;;;5.03;4.47;;;;;;;16.79;65.08;94959.41;5093978;28;20197;-67
2022/06/20 05:41:54;;;;;;;5.90;4.45;;;;;;;16.82;65.38;94951.06;5094946;28;20200;-67
2022/06/20 05:44:21;;;;;;;4.63;4.18;;;;;;;16.88;64.83;94953.44;5094299;28;20193;-66
2022/06/20 05:46:54;;;;;;;4.65;4.25;;;;;;;16.89;64.30;94950.28;5095472;28;20188;-66
2022/06/20 05:49:26;;;;;;;5.38;4.93;;;;;;;16.91;64.28;94956.22;5097544;28;20184;-67
2022/06/20 05:51:54;;;;;;;5.18;4.70;;;;;;;16.95;63.97;94957.03;5098012;28;20201;-67
2022/06/20 05:54:24;;;;;;;7.70;4.47;;;;;;;16.98;63.71;94950.66;5098697;28;20257;-67
2022/06/20 05:56:55;;;;;;;5.40;5.00;;;;;;;17.00;63.63;94951.06;5097668;28;20196;-67
2022/06/20 05:59:40;;;;;;;6.57;5.35;;;;;;;17.02;63.55;94942.31;5098293;28;20624;-67
2022/06/20 06:02:20;;;;;;;5.35;4.85;;;;;;;17.04;63.58;94939.94;5098535;28;20242;-67
2022/06/20 06:04:53;;;;;;;6.00;4.95;;;;;;;17.05;63.79;94945.09;5097714;28;20192;-67
2022/06/20 06:07:24;;;;;;;7.63;5.60;;;;;;;17.10;63.19;94949.47;5097475;28;20196;-68
2022/06/20 06:09:54;;;;;;;8.15;5.70;;;;;;;17.12;63.01;94947.09;5097376;28;20200;-67
2022/06/20 06:12:25;;;;;;;6.07;5.40;;;;;;;17.17;63.46;94943.09;5098362;28;20215;-67
2022/06/20 06:14:57;;;;;;;6.28;5.50;;;;;;;17.24;62.80;94940.31;5098095;28;20184;-67
2022/06/20 06:17:28;;;;;;;5.78;5.38;;;;;;;17.25;62.31;94937.16;5097345;28;20192;-67
2022/06/20 06:19:57;;;;;;;5.63;5.13;;;;;;;17.27;62.24;94937.53;5098161;28;20196;-68
2022/06/20 06:22:26;;;;;;;9.38;7.07;;;;;;;17.28;62.60;94936.34;5098117;28;20188;-67
2022/06/20 06:24:58;;;;;;;5.78;5.28;;;;;;;17.28;62.57;94935.53;5098180;28;20246;-67
2022/06/20 06:27:35;;;;;;;6.07;5.47;;;;;;;17.31;62.58;94940.31;5097479;28;20236;-67
2022/06/20 06:30:03;;;;;;;8.93;5.90;;;;;;;17.33;62.79;94926.78;5097941;28;20184;-67
2022/06/20 06:32:35;;;;;;;8.27;7.50;;;;;;;17.35;63.15;94932.75;5097171;28;20199;-67
2022/06/20 06:35:05;;;;;;;6.95;6.25;;;;;;;17.39;63.23;94927.16;5096668;28;20624;-67
2022/06/20 06:37:36;;;;;;;6.82;5.95;;;;;;;17.42;62.91;94921.56;5096625;28;20204;-67
2022/06/20 06:40:07;;;;;;;7.03;5.63;;;;;;;17.51;62.78;94916.41;5097443;28;20177;-67
2022/06/20 06:42:34;;;;;;;5.72;5.20;;;;;;;17.58;61.85;94915.59;5097644;28;20207;-67
2022/06/20 06:45:01;;;;;;;5.72;4.90;;;;;;;17.65;61.56;94915.59;5097560;28;20249;-67
2022/06/20 06:47:36;;;;;;;6.60;4.93;;;;;;;17.69;60.77;94919.16;5097789;28;20184;-67
2022/06/20 06:50:05;;;;;;;5.18;4.68;;;;;;;17.72;60.25;94903.59;5097094;28;20199;-67
2022/06/20 06:52:37;;;;;;;5.78;5.28;;;;;;;17.77;60.59;94903.22;5096808;28;20253;-67
2022/06/20 06:55:18;;;;;;;6.43;5.72;;;;;;;17.82;60.80;94904.78;5096261;28;20513;-67
2022/06/20 06:57:47;;;;;;;6.88;5.35;;;;;;;17.87;60.10;94901.59;5097511;28;20200;-67
2022/06/20 07:00:23;;;;;;;6.38;4.88;;;;;;;17.91;59.64;94892.00;5097476;28;20196;-66
2022/06/20 07:02:55;;;;;;;5.88;5.05;;;;;;;17.93;59.71;94886.00;5096487;28;20204;-66
2022/06/20 07:05:27;;;;;;;5.63;5.13;;;;;;;17.96;59.73;94876.84;5096096;28;20197;-68
2022/06/20 07:07:57;;;;;;;6.78;5.40;;;;;;;17.99;59.74;94876.03;5096725;28;20688;-68
2022/06/20 07:10:29;;;;;;;6.32;5.65;;;;;;;18.05;59.79;94882.78;5096175;28;20197;-68
2022/06/20 07:12:59;;;;;;;6.13;5.60;;;;;;;18.11;59.78;94874.78;5096066;28;20184;-68
2022/06/20 07:15:27;;;;;;;10.23;5.88;;;;;;;18.16;59.44;94871.56;5096843;28;20258;-68
2022/06/20 07:17:57;;;;;;;8.02;5.93;;;;;;;18.20;59.41;94880.72;5096910;28;20184;-68
2022/06/20 07:20:29;;;;;;;6.68;5.72;;;;;;;18.22;59.44;94870.72;5096679;28;20199;-68
2022/06/20 07:22:59;;;;;;;6.45;5.45;;;;;;;18.27;58.95;94869.53;5096067;28;20199;-68
2022/06/20 07:25:34;;;;;;;7.68;5.60;;;;;;;18.31;58.88;94867.50;5095613;28;20207;-68
2022/06/20 07:28:04;;;;;;;7.07;5.57;;;;;;;18.35;58.83;94859.09;5095553;28;20563;-68
2022/06/20 07:30:33;;;;;;;8.15;5.63;;;;;;;18.40;58.83;94865.03;5096460;28;20188;-68
2022/06/20 07:33:07;;;;;;;6.15;5.55;;;;;;;18.44;58.57;94859.44;5096761;28;20184;-68
2022/06/20 07:35:37;;;;;;;6.82;6.22;;;;;;;18.50;58.24;94860.59;5096777;28;20199;-67
2022/06/20 07:38:10;;;;;;;6.55;6.00;;;;;;;18.56;58.14;94867.34;5095780;28;20189;-68
2022/06/20 07:40:40;;;;;;;10.35;5.95;;;;;;;18.63;58.18;94867.28;5096274;28;20200;-68
2022/06/20 07:43:10;;;;;;;6.60;4.97;;;;;;;18.66;57.95;94865.66;5096453;28;20189;-68
2022/06/20 07:45:41;;;;;;;6.85;5.15;;;;;;;18.69;57.66;94862.84;5095288;28;20226;-68
2022/06/20 07:48:12;;;;;;;7.13;6.50;;;;;;;18.73;57.05;94866.44;5095510;28;20200;-67
2022/06/20 07:50:42;;;;;;;6.55;6.05;;;;;;;18.87;57.12;94857.16;5095823;28;20188;-67
2022/06/20 07:53:11;;;;;;;8.90;5.70;;;;;;;18.98;56.32;94857.06;5094842;28;20207;-67
2022/06/20 07:55:40;;;;;;;5.20;4.70;;;;;;;19.06;56.85;94861.38;5095684;28;20192;-67
2022/06/20 07:58:12;;;;;;;6.03;5.50;;;;;;;19.11;57.65;94851.78;5095141;28;20199;-68
2022/06/20 08:00:42;;;;;;;5.50;4.70;;;;;;;19.20;55.87;94849.28;5095752;28;20220;-71
2022/06/20 08:03:16;;;;;;;5.55;4.70;;;;;;;19.31;56.35;94854.75;5095965;28;20177;-72
2022/06/20 08:05:47;;;;;;;5.55;5.05;;;;;;;19.45;57.75;94857.41;5095701;28;20200;-72
2022/06/20 08:08:18;;;;;;;5.90;5.00;;;;;;;19.56;55.66;94857.31;5095054;28;20195;-72
2022/06/20 08:10:49;;;;;;;6.60;5.78;;;;;;;19.58;56.03;94849.31;5094605;28;20200;-72
2022/06/20 08:13:20;;;;;;;4.78;4.20;;;;;;;19.57;54.51;94851.31;5095793;28;20176;-72
2022/06/20 08:15:53;;;;;;;5.50;4.68;;;;;;;19.61;54.59;94845.69;5095053;28;20192;-72
2022/06/20 08:18:21;;;;;;;4.95;4.45;;;;;;;19.68;55.72;94848.41;5095949;28;20202;-72
2022/06/20 08:20:53;;;;;;;8.07;5.88;;;;;;;19.75;55.65;94844.72;5095406;28;20231;-72
2022/06/20 08:23:22;;;;;;;7.13;5.35;;;;;;;19.79;55.18;94845.47;5095539;28;20192;-73
2022/06/20 08:25:51;;;;;;;7.32;4.50;;;;;;;19.83;55.66;94844.25;5095188;28;20204;-73
2022/06/20 08:28:20;;;;;;;5.78;5.28;;;;;;;19.96;56.24;94842.47;5077732;28;20236;-72
2022/06/20 08:30:51;;;;;;;6.50;5.15;;;;;;;20.12;56.88;94843.88;5095204;28;20620;-73
2022/06/20 08:33:25;;;;;;;5.20;4.80;;;;;;;20.20;56.19;94848.97;5094299;28;20196;-73
2022/06/20 08:35:53;;;;;;;5.35;4.85;;;;;;;20.31;57.12;94839.63;5095412;28;20184;-72
2022/06/20 08:38:23;;;;;;;5.40;5.00;;;;;;;20.31;55.51;94839.63;5095600;28;20180;-73
2022/06/20 08:41:25;;;;;;;5.20;4.47;;;;;;;20.44;52.99;94826.63;5095053;28;20193;-73
2022/06/20 08:44:37;;;;;;;4.82;4.43;;;;;;;20.70;52.58;94838.25;5071731;28;20215;-73
2022/06/20 08:47:46;;;;;;;4.55;4.20;;;;;;;20.82;53.10;94835.69;5094997;28;20516;-73
2022/06/20 08:50:35;;;;;;;4.90;4.07;;;;;;;20.89;52.60;94826.38;5094529;28;20204;-73
2022/06/20 08:53:35;;;;;;;6.57;3.83;;;;;;;21.00;50.25;94832.56;5094376;28;20188;-73
2022/06/20 08:56:15;;;;;;;4.07;3.67;;;;;;;21.14;49.20;94823.94;5095209;28;20181;-73
2022/06/20 08:58:49;;;;;;;3.80;3.28;;;;;;;21.15;49.44;94828.31;5095077;28;20533;-73
2022/06/20 09:01:22;;;;;;;4.25;3.67;;;;;;;21.17;49.22;94836.31;5094329;28;20199;-73
2022/06/20 09:04:09;;;;;;;3.50;2.80;;;;;;;21.26;47.70;94825.31;5094134;28;20196;-72
2022/06/20 09:06:52;;;;;;;3.45;3.15;;;;;;;21.38;47.48;94818.31;5086059;28;20204;-72
2022/06/20 09:09:30;;;;;;;4.13;2.67;;;;;;;21.51;44.41;94818.50;5095602;28;20200;-71
2022/06/20 09:12:08;;;;;;;3.38;3.13;;;;;;;21.66;43.47;94813.38;5095690;28;20180;-70
2022/06/20 09:15:02;;;;;;;4.50;2.70;;;;;;;21.80;42.26;94816.69;5095792;28;20185;-70
2022/06/20 09:17:41;;;;;;;2.42;2.33;;;;;;;21.88;41.14;94809.72;5095563;28;20565;-70
2022/06/20 09:20:16;;;;;;;5.22;2.30;;;;;;;21.98;42.58;94796.69;5095776;28;20199;-70
2022/06/20 09:23:00;;;;;;;2.40;2.20;;;;;;;22.09;42.80;94797.25;5098742;28;20236;-70
2022/06/20 09:25:34;;;;;;;2.90;2.70;;;;;;;22.08;44.87;94790.06;5099223;28;20188;-73
2022/06/20 09:28:12;;;;;;;3.30;3.00;;;;;;;22.19;44.28;94795.47;5098462;28;20238;-70
2022/06/20 09:30:42;;;;;;;2.53;2.30;;;;;;;22.32;43.30;94793.53;5098537;28;20228;-72
2022/06/20 09:33:38;;;;;;;2.47;2.25;;;;;;;22.40;42.78;94794.16;5098113;28;20539;-72
2022/06/20 09:36:27;;;;;;;3.42;2.20;;;;;;;22.49;41.58;94791.56;5098480;28;20195;-72
2022/06/20 09:39:09;;;;;;;3.22;2.45;;;;;;;22.58;40.37;94796.56;5097597;28;20196;-72
2022/06/20 09:41:42;;;;;;;3.97;2.80;;;;;;;22.60;41.99;94794.13;5098376;28;20216;-71
2022/06/20 09:44:16;;;;;;;2.70;2.50;;;;;;;22.63;43.65;94789.66;5097877;28;20192;-71
2022/06/20 09:46:54;;;;;;;2.83;2.50;;;;;;;22.70;40.03;94787.47;5097645;28;20192;-71
2022/06/20 09:49:28;;;;;;;3.83;2.50;;;;;;;22.76;40.48;94785.69;5098486;28;20492;-71
2022/06/20 09:52:00;;;;;;;2.50;2.30;;;;;;;22.74;38.59;94788.16;5098397;28;20196;-71
2022/06/20 09:54:33;;;;;;;3.38;2.55;;;;;;;22.68;39.56;94789.13;5097171;28;20188;-71
2022/06/20 09:57:07;;;;;;;3.08;2.30;;;;;;;22.80;42.27;94783.59;5098004;28;20674;-71
2022/06/20 09:59:41;;;;;;;2.60;2.40;;;;;;;23.00;37.73;94783.53;5097889;28;20188;-71
2022/06/20 10:02:14;;;;;;;2.58;2.38;;;;;;;23.08;38.70;94783.34;5098201;28;20204;-72
2022/06/20 10:04:48;;;;;;;2.70;2.50;;;;;;;23.19;40.16;94784.63;5098339;28;20189;-73
2022/06/20 10:07:20;;;;;;;2.33;2.13;;;;;;;23.28;38.11;94778.41;5097328;28;20196;-72
2022/06/20 10:09:53;;;;;;;3.92;2.35;;;;;;;23.22;39.70;94771.72;5098036;28;20196;-72
2022/06/20 10:12:24;;;;;;;2.45;2.25;;;;;;;23.37;37.64;94772.13;5098095;28;20180;-72
2022/06/20 10:15:03;;;;;;;2.72;2.53;;;;;;;23.37;39.25;94770.09;5097203;28;20185;-72
2022/06/20 10:17:38;;;;;;;3.88;2.50;;;;;;;23.41;40.41;94770.00;5097985;28;20211;-70
2022/06/20 10:20:16;;;;;;;2.80;2.60;;;;;;;23.51;38.34;94768.91;5097548;28;20239;-69
2022/06/20 10:22:47;;;;;;;2.67;2.47;;;;;;;23.58;37.01;94771.53;5096996;28;20269;-70
2022/06/20 10:25:33;;;;;;;2.63;2.42;;;;;;;23.57;38.18;94772.78;5097892;28;20192;-70
2022/06/20 10:28:04;;;;;;;3.20;2.40;;;;;;;23.65;36.48;94773.38;5096441;28;20254;-70
2022/06/20 10:30:40;;;;;;;2.40;2.20;;;;;;;23.70;36.18;94776.44;5098293;28;20185;-70
2022/06/20 10:33:23;;;;;;;2.17;1.98;;;;;;;23.73;33.69;94769.13;5097214;28;20176;-70
2022/06/20 10:35:58;;;;;;;1.95;1.85;;;;;;;23.70;33.46;94764.41;5098562;28;20206;-69
2022/06/20 10:38:33;;;;;;;4.50;2.30;;;;;;;23.71;37.83;94754.72;5097129;28;20196;-70
2022/06/20 10:41:06;;;;;;;2.47;2.28;;;;;;;23.90;34.77;94753.75;5097561;28;20209;-68
2022/06/20 10:43:46;;;;;;;3.67;2.90;;;;;;;23.94;34.51;94742.41;5097242;28;20253;-75
2022/06/20 10:46:20;;;;;;;3.72;2.83;;;;;;;24.00;38.05;94749.03;5097449;28;20207;-75
2022/06/20 10:49:22;;;;;;;3.60;2.50;;;;;;;24.13;35.30;94744.22;5097390;28;20200;-74
2022/06/20 10:51:57;;;;;;;2.35;2.15;;;;;;;24.19;32.44;94744.47;5094340;28;20218;-75
2022/06/20 10:54:35;;;;;;;2.97;2.20;;;;;;;24.15;31.89;94747.38;5096627;28;20191;-74
2022/06/20 10:57:09;;;;;;;2.58;2.38;;;;;;;24.17;31.67;94738.47;5097226;28;20189;-74
2022/06/20 10:59:44;;;;;;;2.13;2.03;;;;;;;24.17;32.84;94736.44;5097379;28;20187;-75
2022/06/20 11:02:24;;;;;;;2.00;1.90;;;;;;;24.25;33.39;94726.50;5096573;28;20222;-74
2022/06/20 11:04:58;;;;;;;2.78;2.50;;;;;;;24.37;35.40;94735.44;5097120;28;20184;-73
2022/06/20 11:07:32;;;;;;;3.00;2.70;;;;;;;24.43;35.58;94730.84;5097030;28;20603;-74
2022/06/20 11:10:06;;;;;;;2.83;2.58;;;;;;;24.45;34.99;94729.16;5097039;28;20188;-74
2022/06/20 11:12:45;;;;;;;2.75;2.55;;;;;;;24.42;35.53;94727.22;5096362;28;20203;-74
2022/06/20 11:15:20;;;;;;;2.03;1.92;;;;;;;24.39;36.97;94722.50;5096751;28;20212;-74
2022/06/20 11:17:53;;;;;;;3.03;2.58;;;;;;;24.42;36.47;94715.19;5095939;28;20196;-74
2022/06/20 11:20:24;;;;;;;2.50;2.30;;;;;;;24.49;35.36;94720.59;5096876;28;20189;-74
2022/06/20 11:22:55;;;;;;;3.53;2.13;;;;;;;24.48;35.24;94719.00;5096393;28;20212;-74
2022/06/20 11:25:29;;;;;;;2.97;2.70;;;;;;;24.49;37.11;94714.94;5096653;28;20188;-74
2022/06/20 11:28:14;;;;;;;2.97;2.78;;;;;;;24.60;37.59;94706.94;5095973;28;20227;-74
2022/06/20 11:30:44;;;;;;;2.88;2.58;;;;;;;24.74;35.03;94703.63;5096638;28;20203;-74
2022/06/20 11:33:21;;;;;;;2.58;2.47;;;;;;;24.74;34.99;94691.56;5095678;28;20200;-76
2022/06/20 11:35:50;;;;;;;2.70;2.50;;;;;;;24.70;35.85;94688.88;5095306;28;20187;-74
2022/06/20 11:38:38;;;;;;;2.60;2.30;;;;;;;24.70;34.38;94686.06;5095486;28;20196;-74
2022/06/20 11:41:07;;;;;;;3.47;2.20;;;;;;;24.70;35.45;94677.59;5095450;28;20196;-74
2022/06/20 11:44:22;;;;;;;2.60;2.40;;;;;;;24.73;34.68;94678.72;5095563;28;20227;-74
2022/06/20 11:47:04;;;;;;;2.80;2.60;;;;;;;24.85;36.96;94682.75;5009274;28;20226;-74
2022/06/20 11:49:42;;;;;;;2.65;2.45;;;;;;;24.98;36.36;94681.47;5017694;28;20225;-74
2022/06/20 11:52:17;;;;;;;2.97;2.70;;;;;;;25.01;35.96;94676.16;5073333;28;20211;-75
2022/06/20 11:54:49;;;;;;;2.67;2.47;;;;;;;25.02;35.62;94675.72;5095492;28;20191;-74
2022/06/20 11:57:22;;;;;;;2.42;2.30;;;;;;;25.07;36.62;94675.13;5096169;28;20531;-73
2022/06/20 11:59:54;;;;;;;2.50;2.30;;;;;;;25.05;33.80;94668.34;5096076;28;20184;-75
2022/06/20 12:02:37;;;;;;;2.65;2.45;;;;;;;25.03;34.18;94659.56;5096272;28;20212;-76